Time;durP1;ratioP1;P1;durP2;ratioP2;P2;SDS_P1;SDS_P2;PMS_P1;PMS_P2;Temp;Humidity;BMP_temperature;BMP_pressure;BME280_temperature;BME280_humidity;BME280_pressure;Samples;Min_cycle;Max_cycle;Signal;HPM_P1;HPM_P2
2022/03/16 00:02:26;;;;;;;1.60;0.75;;;18.20;33.10;20.80;94429.00;;;;10371346;28;45778;-63
2022/03/16 00:07:27;;;;;;;2.95;0.80;;;18.10;33.10;20.80;94432.00;;;;10354631;28;48043;-62
2022/03/16 00:12:28;;;;;;;1.38;0.80;;;18.10;33.10;20.80;94426.00;;;;10330414;23;47281;-60
2022/03/16 00:17:28;;;;;;;3.72;0.90;;;18.10;33.10;20.80;94418.00;;;;10330438;28;45659;-60
2022/03/16 00:22:29;;;;;;;1.13;0.70;;;18.10;33.10;20.70;94415.00;;;;10289223;28;46982;-60
2022/03/16 00:27:30;;;;;;;0.85;0.60;;;18.10;33.10;20.70;94416.00;;;;10289279;28;45247;-60
2022/03/16 00:32:30;;;;;;;1.63;0.70;;;18.10;33.10;20.70;94415.00;;;;10288970;28;46407;-60
2022/03/16 00:37:32;;;;;;;1.33;0.80;;;18.10;33.20;20.70;94416.00;;;;10288775;28;45232;-60
2022/03/16 00:42:33;;;;;;;0.85;0.68;;;18.10;33.20;20.70;94396.00;;;;10288718;28;47615;-59
2022/03/16 00:47:33;;;;;;;1.35;0.55;;;18.10;33.20;20.70;94400.00;;;;10289004;28;45405;-60
2022/03/16 00:52:34;;;;;;;2.63;0.70;;;18.00;33.20;20.70;94391.00;;;;10288451;28;45380;-60
2022/03/16 00:57:35;;;;;;;2.22;0.70;;;18.00;33.90;20.70;94400.00;;;;10272095;28;45386;-61
2022/03/16 01:02:36;;;;;;;1.02;0.68;;;18.00;33.10;20.70;94396.00;;;;10287766;28;47126;-60
2022/03/16 01:07:36;;;;;;;1.35;0.60;;;18.00;33.10;20.70;94387.00;;;;10287977;28;45422;-60
2022/03/16 01:12:37;;;;;;;1.48;0.60;;;18.00;33.10;20.70;94387.00;;;;10287285;28;45228;-60
2022/03/16 01:17:38;;;;;;;1.30;0.80;;;18.00;33.10;20.60;94380.00;;;;10272372;28;45398;-61
2022/03/16 01:22:38;;;;;;;1.70;0.60;;;18.00;33.10;20.60;94384.00;;;;10272532;28;45188;-60
2022/03/16 01:27:39;;;;;;;0.73;0.60;;;18.00;33.10;20.60;94369.00;;;;10272518;28;46659;-60
2022/03/16 01:32:40;;;;;;;2.67;0.77;;;18.00;33.20;20.60;94369.00;;;;10286932;28;46793;-60
2022/03/16 01:37:43;;;;;;;1.08;0.60;;;18.00;33.20;20.60;94352.00;;;;10272024;28;45572;-60
2022/03/16 01:42:44;;;;;;;1.17;0.75;;;18.00;33.20;20.60;94349.00;;;;10286844;28;45445;-60
2022/03/16 01:47:44;;;;;;;1.58;0.73;;;17.90;33.20;20.60;94359.00;;;;10286701;28;47167;-60
2022/03/16 01:52:45;;;;;;;1.10;0.70;;;17.90;33.10;20.60;94366.00;;;;10271526;28;45183;-60
2022/03/16 01:57:49;;;;;;;1.52;0.60;;;17.90;33.10;20.60;94369.00;;;;10286178;28;45476;-60
2022/03/16 02:02:49;;;;;;;3.00;0.73;;;17.90;33.10;20.60;94364.00;;;;10280738;28;45590;-60
2022/03/16 02:07:50;;;;;;;1.13;0.60;;;17.90;33.10;20.60;94362.00;;;;10274048;28;46371;-60
2022/03/16 02:12:52;;;;;;;1.05;0.50;;;17.90;33.20;20.60;94362.00;;;;10293446;28;45409;-60
2022/03/16 02:17:57;;;;;;;0.70;0.60;;;17.90;33.20;20.50;94365.00;;;;10293753;28;45152;-60
2022/03/16 02:23:01;;;;;;;1.15;0.63;;;17.90;33.20;20.50;94349.00;;;;10292984;28;46373;-61
2022/03/16 02:28:02;;;;;;;1.20;0.52;;;17.90;33.20;20.50;94347.00;;;;10277866;28;45209;-60
2022/03/16 02:33:03;;;;;;;1.45;0.70;;;17.90;33.10;20.50;94354.00;;;;10292858;28;46480;-60
2022/03/16 02:38:04;;;;;;;0.68;0.47;;;17.90;33.20;20.50;94362.00;;;;10292675;28;46440;-60
2022/03/16 02:43:05;;;;;;;1.45;0.65;;;17.90;33.20;20.50;94352.00;;;;10292510;28;45233;-60
2022/03/16 02:48:06;;;;;;;1.10;0.70;;;17.90;33.20;20.50;94351.00;;;;10277150;28;45948;-60
2022/03/16 02:53:07;;;;;;;0.70;0.50;;;17.90;33.90;20.50;94363.00;;;;10292177;28;45176;-61
2022/03/16 02:58:08;;;;;;;1.48;0.60;;;17.90;33.20;20.50;94362.00;;;;10291740;28;48481;-60
2022/03/16 03:03:08;;;;;;;1.33;0.68;;;17.90;33.20;20.50;94366.00;;;;10291934;28;46288;-60
2022/03/16 03:08:09;;;;;;;1.95;0.70;;;17.90;33.20;20.50;94375.00;;;;10291666;28;45295;-60
2022/03/16 03:13:11;;;;;;;1.60;0.70;;;17.80;33.20;20.50;94362.00;;;;10276656;28;46729;-59
2022/03/16 03:18:12;;;;;;;1.02;0.60;;;17.80;33.20;20.50;94373.00;;;;10290183;28;46947;-60
2022/03/16 03:23:13;;;;;;;1.38;0.70;;;17.80;33.20;20.50;94388.00;;;;10291099;28;47215;-60
2022/03/16 03:28:15;;;;;;;1.10;0.75;;;17.80;33.20;20.50;94381.00;;;;10290881;28;47334;-60
2022/03/16 03:33:15;;;;;;;1.50;0.73;;;17.80;33.20;20.40;94393.00;;;;10276245;28;46220;-60
2022/03/16 03:38:16;;;;;;;0.60;0.50;;;17.80;33.30;20.40;94369.00;;;;10290499;28;45385;-60
2022/03/16 03:43:17;;;;;;;0.73;0.60;;;17.80;33.20;20.40;94386.00;;;;10275597;28;46423;-60
2022/03/16 03:48:17;;;;;;;1.00;0.60;;;17.80;33.20;20.40;94397.00;;;;10275133;28;45305;-60
2022/03/16 03:53:18;;;;;;;3.55;0.63;;;17.80;33.90;20.40;94392.00;;;;10290741;28;46443;-60
2022/03/16 03:58:19;;;;;;;0.70;0.70;;;17.80;33.30;20.40;94393.00;;;;10289575;28;47181;-60
2022/03/16 04:03:19;;;;;;;1.30;0.70;;;17.80;33.20;20.40;94393.00;;;;10290338;28;45400;-60
2022/03/16 04:08:20;;;;;;;0.90;0.50;;;17.80;33.20;20.40;94404.00;;;;10289127;28;47244;-60
2022/03/16 04:13:21;;;;;;;1.50;0.65;;;17.70;33.20;20.40;94396.00;;;;10275119;28;45237;-60
2022/03/16 04:18:23;;;;;;;1.05;0.60;;;17.80;33.20;20.40;94391.00;;;;10274072;28;45322;-60
2022/03/16 04:23:23;;;;;;;0.90;0.70;;;17.70;33.20;20.40;94403.00;;;;10274290;28;45543;-60
2022/03/16 04:28:24;;;;;;;2.25;0.60;;;17.70;33.20;20.40;94398.00;;;;10273863;28;45458;-60
2022/03/16 04:33:24;;;;;;;1.00;0.73;;;17.70;33.20;20.40;94408.00;;;;10289510;28;47257;-59
2022/03/16 04:38:25;;;;;;;1.35;0.63;;;17.70;33.20;20.30;94403.00;;;;10288580;28;45342;-60
2022/03/16 04:43:26;;;;;;;1.20;0.80;;;17.70;33.30;20.40;94410.00;;;;10289111;28;45396;-60
2022/03/16 04:48:27;;;;;;;1.23;0.65;;;17.70;33.30;20.30;94401.00;;;;10287901;28;47343;-60
2022/03/16 04:53:27;;;;;;;1.27;0.70;;;17.70;33.30;20.30;94413.00;;;;10288859;28;45374;-59
2022/03/16 04:58:28;;;;;;;1.65;0.70;;;17.70;33.30;20.30;94405.00;;;;10287863;28;45344;-60
2022/03/16 05:03:29;;;;;;;1.63;0.70;;;17.70;33.30;20.30;94413.00;;;;10288380;28;47270;-60
2022/03/16 05:08:29;;;;;;;2.08;0.80;;;17.70;33.30;20.40;94411.00;;;;10287710;28;47160;-59
2022/03/16 05:13:30;;;;;;;1.17;0.65;;;17.70;33.30;20.40;94408.00;;;;10288470;28;45676;-60
2022/03/16 05:18:31;;;;;;;1.70;0.82;;;17.70;33.30;20.40;94401.00;;;;10287554;28;45380;-59
2022/03/16 05:23:32;;;;;;;0.98;0.68;;;17.80;33.30;20.40;94402.00;;;;10288572;28;45451;-59
2022/03/16 05:28:34;;;;;;;1.30;0.70;;;17.80;33.20;20.50;94397.00;;;;10272557;28;46450;-59
2022/03/16 05:33:35;;;;;;;2.30;0.80;;;17.80;33.20;20.50;94390.00;;;;10287691;28;45411;-60
2022/03/16 05:38:36;;;;;;;1.90;0.88;;;17.90;33.20;20.50;94412.00;;;;10272350;28;45162;-58
2022/03/16 05:43:37;;;;;;;0.82;0.73;;;17.90;33.10;20.50;94395.00;;;;10287367;28;46858;-59
2022/03/16 05:48:37;;;;;;;1.35;0.70;;;17.90;33.20;20.50;94420.00;;;;10272279;28;45402;-59
2022/03/16 05:53:38;;;;;;;1.65;0.80;;;17.90;33.10;20.60;94416.00;;;;10272698;28;46454;-59
2022/03/16 05:58:39;;;;;;;1.33;0.73;;;17.90;33.00;20.60;94423.00;;;;10287289;28;46847;-61
2022/03/16 06:03:40;;;;;;;1.02;0.70;;;18.00;33.10;20.60;94421.00;;;;10272091;28;46212;-59
2022/03/16 06:08:40;;;;;;;1.17;0.60;;;18.00;33.00;20.60;94437.00;;;;10286916;28;47293;-60
2022/03/16 06:13:41;;;;;;;2.45;0.82;;;18.00;33.10;20.60;94446.00;;;;10272033;28;45396;-60
2022/03/16 06:18:41;;;;;;;1.45;0.60;;;18.00;32.90;20.60;94447.00;;;;10273746;28;46763;-59
2022/03/16 06:23:42;;;;;;;1.33;0.75;;;18.10;32.90;20.70;94453.00;;;;10271849;28;45383;-60
2022/03/16 06:28:43;;;;;;;1.13;0.68;;;18.10;32.90;20.70;94449.00;;;;10285521;28;45305;-60
2022/03/16 06:33:43;;;;;;;0.88;0.70;;;18.10;32.90;20.70;94453.00;;;;10286102;28;46606;-60
2022/03/16 06:38:44;;;;;;;0.88;0.73;;;18.10;32.80;20.70;94473.00;;;;10302324;28;47394;-59
2022/03/16 06:43:45;;;;;;;2.38;0.90;;;18.10;32.80;20.70;94475.00;;;;10285926;28;46580;-60
2022/03/16 06:48:45;;;;;;;2.80;1.10;;;18.10;32.70;20.70;94473.00;;;;10285942;28;46332;-60
2022/03/16 06:53:46;;;;;;;3.38;1.42;;;18.10;32.80;20.70;94480.00;;;;10287415;28;46742;-61
2022/03/16 06:58:48;;;;;;;2.17;0.90;;;18.10;32.70;20.80;94464.00;;;;10308947;28;46907;-60
2022/03/16 07:03:49;;;;;;;1.35;0.90;;;18.10;32.70;20.80;94470.00;;;;10292443;28;45350;-60
2022/03/16 07:08:50;;;;;;;1.75;1.05;;;18.20;32.70;20.80;94455.00;;;;10292136;28;46493;-60
2022/03/16 07:19:11;;;;;;;1.75;1.08;;;18.10;32.70;20.80;94473.00;;;;10263356;28;45222;-60
2022/03/16 07:24:11;;;;;;;1.52;1.02;;;18.20;32.70;20.80;94471.00;;;;10280530;28;45443;-60
2022/03/16 07:29:12;;;;;;;1.40;1.00;;;18.20;32.70;20.80;94470.00;;;;10279701;28;46998;-60
2022/03/16 07:34:14;;;;;;;2.70;1.23;;;18.20;32.80;20.80;94482.00;;;;10291247;28;47471;-59
2022/03/16 07:39:15;;;;;;;2.20;1.17;;;18.20;32.80;20.80;94472.00;;;;10274740;28;46324;-60
2022/03/16 07:44:15;;;;;;;3.05;1.30;;;18.20;33.00;20.80;94464.00;;;;10275948;28;45214;-60
2022/03/16 07:49:16;;;;;;;2.78;1.38;;;18.20;32.90;20.80;94473.00;;;;10274713;28;45110;-59
2022/03/16 07:54:17;;;;;;;2.33;1.10;;;18.20;32.90;20.80;94466.00;;;;10274669;28;46846;-61
2022/03/16 07:59:17;;;;;;;2.08;0.93;;;18.20;33.00;20.90;94483.00;;;;10269330;28;45395;-60
2022/03/16 08:04:18;;;;;;;1.90;1.23;;;18.20;33.10;20.90;94474.00;;;;10315280;28;45299;-60
2022/03/16 08:09:19;;;;;;;2.15;1.15;;;18.20;33.10;20.80;94476.00;;;;10329231;28;47267;-60
2022/03/16 08:14:19;;;;;;;4.03;1.30;;;18.20;33.40;20.80;94475.00;;;;10330881;28;45707;-60
2022/03/16 08:19:21;;;;;;;4.78;1.33;;;18.20;33.40;20.80;94469.00;;;;10313228;28;47258;-60
2022/03/16 08:24:21;;;;;;;3.65;1.20;;;18.20;33.90;20.90;94468.00;;;;10330719;28;45415;-60
2022/03/16 08:29:22;;;;;;;2.90;1.23;;;18.30;34.10;20.90;94472.00;;;;10314813;28;45622;-60
2022/03/16 08:34:23;;;;;;;3.10;1.50;;;18.20;34.10;20.90;94461.00;;;;10344677;28;46864;-60
2022/03/16 08:39:23;;;;;;;2.92;1.25;;;18.20;34.40;20.90;94476.00;;;;10353967;28;46041;-60
2022/03/16 08:44:24;;;;;;;3.30;1.35;;;18.30;34.60;20.90;94475.00;;;;10354282;28;45528;-61
2022/03/16 08:49:25;;;;;;;2.88;1.40;;;18.30;34.70;20.90;94479.00;;;;10353692;28;46573;-61
2022/03/16 08:54:26;;;;;;;4.82;1.40;;;18.30;34.80;20.90;94465.00;;;;10354211;28;46446;-60
2022/03/16 08:59:27;;;;;;;9.40;1.70;;;18.30;34.80;20.70;94448.00;;;;10353114;28;46865;-61
2022/03/16 09:04:27;;;;;;;6.40;1.55;;;18.20;34.20;20.70;94466.00;;;;10353547;28;47526;-60
2022/03/16 09:09:29;;;;;;;5.72;1.50;;;18.20;34.20;20.70;94453.00;;;;10353994;28;45298;-60
2022/03/16 09:14:30;;;;;;;6.35;1.42;;;18.20;34.40;20.60;94461.00;;;;10353344;28;47337;-60
2022/03/16 09:19:30;;;;;;;3.67;1.35;;;18.10;34.50;20.80;94454.00;;;;10353293;28;45401;-60
2022/03/16 09:24:32;;;;;;;4.65;1.25;;;18.20;34.20;20.80;94460.00;;;;10354398;28;45644;-60
2022/03/16 09:29:33;;;;;;;3.70;0.93;;;18.20;34.10;20.90;94462.00;;;;10352305;28;47667;-60
2022/03/16 09:34:34;;;;;;;6.10;1.27;;;18.20;34.00;20.90;94456.00;;;;10352742;28;45368;-60
2022/03/16 09:39:35;;;;;;;5.03;1.10;;;18.30;34.10;20.90;94449.00;;;;10352440;28;45156;-60
2022/03/16 09:44:36;;;;;;;2.53;1.30;;;18.30;34.10;20.90;94444.00;;;;10300996;28;45892;-60
2022/03/16 09:49:38;;;;;;;7.80;1.20;;;18.30;34.30;20.90;94451.00;;;;10291098;28;47419;-60
2022/03/16 09:54:39;;;;;;;5.18;1.30;;;18.30;35.00;20.90;94441.00;;;;10289700;28;47094;-60
2022/03/16 09:59:40;;;;;;;2.47;1.10;;;18.30;34.50;20.90;94440.00;;;;10306715;28;45573;-60
2022/03/16 10:04:42;;;;;;;3.30;1.20;;;18.30;34.50;21.00;94440.00;;;;10275546;28;45275;-60
2022/03/16 10:15:18;;;;;;;4.00;0.90;;;18.30;34.50;21.00;94433.00;;;;10290056;28;45415;-60
2022/03/16 10:20:28;;;;;;;2.20;0.98;;;18.30;34.50;21.00;94429.00;;;;10306710;28;47270;-60
2022/03/16 10:25:38;;;;;;;3.58;1.10;;;18.40;34.70;21.00;94437.00;;;;10272890;28;45221;-60
2022/03/16 10:31:05;;;;;;;1.80;0.82;;;18.30;34.60;21.00;94418.00;;;;10297129;28;46427;-60
2022/03/16 10:36:09;;;;;;;3.58;1.23;;;18.30;34.50;21.00;94426.00;;;;10297642;28;45288;-59
2022/03/16 10:46:46;;;;;;;1.95;1.00;;;18.40;34.80;21.00;94414.00;;;;10290536;28;45623;-60
2022/03/16 10:52:02;;;;;;;3.90;1.13;;;18.40;35.00;21.00;94413.00;;;;10292272;28;46475;-60
2022/03/16 10:57:08;;;;;;;3.10;1.30;;;18.40;35.20;21.00;94398.00;;;;10292308;28;46133;-60
2022/03/16 11:02:12;;;;;;;1.67;0.95;;;18.40;35.50;21.00;94401.00;;;;10306199;28;45387;-60
2022/03/16 11:07:14;;;;;;;3.05;1.00;;;18.40;35.60;21.00;94396.00;;;;10303606;28;46535;-60
2022/03/16 11:17:36;;;;;;;3.47;1.25;;;18.40;35.90;21.00;94387.00;;;;10291128;28;45848;-60
2022/03/16 11:28:31;;;;;;;4.28;2.08;;;18.40;36.10;21.00;94385.00;;;;10288321;28;45250;-60
2022/03/16 11:33:49;;;;;;;4.00;1.88;;;18.40;36.30;21.00;94382.00;;;;10310116;28;46627;-60
2022/03/16 11:38:51;;;;;;;3.78;1.95;;;18.40;36.20;21.00;94361.00;;;;10290040;28;47797;-60
2022/03/16 11:44:28;;;;;;;4.85;1.70;;;18.40;36.30;21.10;94361.00;;;;10291490;28;47093;-60
2022/03/16 11:49:29;;;;;;;4.82;1.65;;;18.40;36.30;21.10;94372.00;;;;10286166;28;45447;-60
2022/03/16 11:54:47;;;;;;;4.50;1.40;;;18.40;36.30;21.00;94361.00;;;;10302304;28;45477;-59
2022/03/16 11:59:47;;;;;;;2.75;1.40;;;18.40;36.50;21.10;94365.00;;;;10290316;28;45442;-60
2022/03/16 12:04:52;;;;;;;3.60;1.20;;;18.40;36.40;21.10;94370.00;;;;10274275;28;48161;-60
2022/03/16 12:10:22;;;;;;;2.65;1.15;;;18.40;36.40;21.10;94371.00;;;;10273146;28;46042;-60
2022/03/16 12:15:38;;;;;;;4.15;1.27;;;18.40;36.50;21.10;94345.00;;;;10255914;28;47969;-60
2022/03/16 12:20:49;;;;;;;4.18;1.17;;;18.50;36.50;21.10;94339.00;;;;10303060;28;45142;-60
2022/03/16 12:25:51;;;;;;;2.55;1.20;;;18.50;36.50;21.10;94333.00;;;;10326355;28;47305;-60
2022/03/16 12:30:58;;;;;;;2.25;1.20;;;18.50;36.40;21.10;94318.00;;;;10313934;28;45401;-61
2022/03/16 12:36:04;;;;;;;2.47;1.02;;;18.50;36.40;21.10;94323.00;;;;10309025;28;46150;-60
2022/03/16 12:47:00;;;;;;;2.72;1.00;;;18.40;36.20;21.10;94311.00;;;;10313393;28;45202;-60
2022/03/16 12:52:02;;;;;;;3.38;1.00;;;18.40;36.10;21.10;94294.00;;;;10313137;28;46019;-60
2022/03/16 12:57:16;;;;;;;3.53;1.17;;;18.40;36.20;21.10;94305.00;;;;10312589;28;47370;-61
2022/03/16 13:02:23;;;;;;;3.55;1.10;;;18.40;36.10;21.10;94289.00;;;;10313042;28;45449;-59
2022/03/16 13:07:25;;;;;;;1.85;0.90;;;18.40;36.00;21.10;94306.00;;;;10298434;28;45484;-60
2022/03/16 13:12:26;;;;;;;2.58;1.10;;;18.40;36.00;21.10;94295.00;;;;10292886;28;47503;-59
2022/03/16 13:17:37;;;;;;;4.85;1.10;;;18.40;36.00;21.10;94302.00;;;;10304304;28;45584;-59
2022/03/16 13:22:38;;;;;;;3.88;1.20;;;18.50;36.40;21.10;94296.00;;;;10312505;28;45215;-59
2022/03/16 13:27:40;;;;;;;6.00;1.17;;;18.50;36.50;21.00;94276.00;;;;10312431;28;46136;-58
2022/03/16 13:32:44;;;;;;;3.05;1.10;;;18.50;36.60;21.10;94283.00;;;;10272809;28;46151;-58
2022/03/16 13:37:48;;;;;;;5.63;1.50;;;18.50;36.70;21.10;94276.00;;;;10271530;28;46203;-59
2022/03/16 13:43:07;;;;;;;9.88;3.33;;;18.50;36.80;21.10;94272.00;;;;10280237;28;45197;-61
2022/03/16 13:48:16;;;;;;;11.88;2.85;;;18.50;37.80;21.10;94261.00;;;;10285111;28;45456;-59
2022/03/16 13:53:20;;;;;;;7.82;2.28;;;18.50;37.30;21.00;94259.00;;;;10303769;28;47052;-59
2022/03/16 13:58:25;;;;;;;6.47;2.08;;;18.40;38.00;21.00;94256.00;;;;10293668;28;45505;-60
2022/03/16 14:03:28;;;;;;;7.38;2.47;;;18.40;37.60;21.10;94244.00;;;;10289785;28;45512;-60
2022/03/16 14:08:28;;;;;;;7.93;2.05;;;18.50;36.90;21.10;94241.00;;;;10298226;28;46884;-61
2022/03/16 14:13:42;;;;;;;6.30;1.95;;;18.50;37.10;21.00;94248.00;;;;10294665;28;46501;-59
2022/03/16 14:18:43;;;;;;;5.55;1.60;;;18.40;36.80;21.10;94250.00;;;;10277463;28;47659;-62
2022/03/16 14:23:44;;;;;;;3.47;1.60;;;18.40;37.00;21.10;94243.00;;;;10294115;28;45330;-60
2022/03/16 14:28:46;;;;;;;4.80;1.70;;;18.40;36.50;21.10;94250.00;;;;10294087;28;45538;-60
2022/03/16 14:33:46;;;;;;;3.35;1.58;;;18.40;36.50;21.10;94245.00;;;;10293976;28;45255;-59
2022/03/16 14:38:47;;;;;;;2.50;1.30;;;18.40;36.50;21.10;94238.00;;;;10276523;28;48059;-59
2022/03/16 14:43:47;;;;;;;4.35;1.13;;;18.40;36.40;21.10;94239.00;;;;10278383;28;45382;-60
2022/03/16 14:48:48;;;;;;;3.45;1.48;;;18.40;36.40;21.10;94245.00;;;;10276241;28;47022;-60
2022/03/16 14:53:49;;;;;;;3.13;1.42;;;18.40;36.40;21.10;94240.00;;;;10292725;28;45428;-59
2022/03/16 14:58:49;;;;;;;3.60;1.40;;;18.40;36.50;21.00;94236.00;;;;10291760;28;48325;-59
2022/03/16 15:03:50;;;;;;;4.55;1.38;;;18.40;36.50;21.10;94234.00;;;;10278016;28;45222;-60
2022/03/16 15:08:51;;;;;;;5.82;1.40;;;18.40;36.30;21.10;94230.00;;;;10291955;28;45343;-60
2022/03/16 15:13:51;;;;;;;2.92;1.20;;;18.40;36.20;21.10;94214.00;;;;10291340;28;45334;-60
2022/03/16 15:18:52;;;;;;;2.05;1.15;;;18.40;36.20;21.10;94217.00;;;;10292201;28;46703;-60
2022/03/16 15:23:53;;;;;;;2.70;1.00;;;18.40;36.20;21.00;94201.00;;;;10291881;28;45234;-61
2022/03/16 15:28:53;;;;;;;3.05;1.35;;;18.40;36.10;21.10;94222.00;;;;10291567;28;45473;-62
2022/03/16 15:33:54;;;;;;;3.40;1.10;;;18.40;36.10;21.10;94214.00;;;;10270328;28;47062;-61
2022/03/16 15:38:54;;;;;;;5.15;1.35;;;18.40;35.90;21.10;94220.00;;;;10289889;28;45217;-60
2022/03/16 15:43:56;;;;;;;4.03;1.27;;;18.40;35.90;21.10;94209.00;;;;10291890;28;45414;-59
2022/03/16 15:48:58;;;;;;;5.03;1.20;;;18.40;35.90;21.10;94196.00;;;;10274429;28;47762;-60
2022/03/16 15:53:59;;;;;;;4.28;1.60;;;18.40;35.90;21.10;94208.00;;;;10291306;28;46189;-60
2022/03/16 15:59:00;;;;;;;4.40;1.80;;;18.40;35.90;21.10;94194.00;;;;10275893;28;46596;-60
2022/03/16 16:04:00;;;;;;;5.20;2.35;;;18.40;35.90;21.10;94201.00;;;;10290648;28;47048;-62
2022/03/16 16:09:01;;;;;;;3.70;2.03;;;18.40;35.90;21.10;94189.00;;;;10289616;28;45256;-61
2022/03/16 16:14:04;;;;;;;4.93;2.00;;;18.40;36.20;21.10;94199.00;;;;10290765;28;46774;-59
2022/03/16 16:19:05;;;;;;;4.88;1.90;;;18.50;36.10;21.10;94208.00;;;;10274523;28;45468;-60
2022/03/16 16:24:06;;;;;;;6.68;2.42;;;18.50;36.20;21.10;94217.00;;;;10286582;28;46476;-60
2022/03/16 16:29:09;;;;;;;5.68;2.50;;;18.40;36.20;21.10;94210.00;;;;10269755;28;46527;-60
2022/03/16 16:34:10;;;;;;;4.15;2.28;;;18.40;36.20;21.10;94210.00;;;;10294297;28;47157;-59
2022/03/16 16:39:11;;;;;;;3.83;1.90;;;18.40;36.20;21.10;94204.00;;;;10288955;28;45424;-59
2022/03/16 16:44:13;;;;;;;4.40;1.85;;;18.40;36.20;21.10;94217.00;;;;10288225;28;47281;-60
2022/03/16 16:49:14;;;;;;;5.10;2.10;;;18.40;36.30;21.10;94223.00;;;;10273026;28;46073;-60
2022/03/16 16:54:15;;;;;;;5.13;1.88;;;18.40;36.30;21.10;94217.00;;;;10290159;28;45478;-59
2022/03/16 16:59:17;;;;;;;4.57;2.00;;;18.40;36.10;21.10;94215.00;;;;10273632;28;45204;-59
2022/03/16 17:04:18;;;;;;;3.08;1.48;;;18.40;36.30;21.10;94226.00;;;;10287964;28;46370;-60
2022/03/16 17:09:19;;;;;;;3.45;1.70;;;18.40;36.30;21.10;94216.00;;;;10285135;28;45468;-59
2022/03/16 17:14:21;;;;;;;2.80;1.50;;;18.50;36.30;21.10;94238.00;;;;10284026;28;46293;-59
2022/03/16 17:19:22;;;;;;;4.20;1.50;;;18.40;36.30;21.10;94248.00;;;;10271107;28;48028;-60
2022/03/16 17:24:22;;;;;;;4.00;1.45;;;18.40;36.30;21.10;94243.00;;;;10288079;28;46274;-60
2022/03/16 17:29:24;;;;;;;3.42;1.52;;;18.40;36.30;21.10;94224.00;;;;10287057;28;45257;-60
2022/03/16 17:34:25;;;;;;;3.83;1.40;;;18.40;36.30;21.10;94235.00;;;;10272280;28;45222;-60
2022/03/16 17:39:28;;;;;;;6.68;1.42;;;18.40;36.20;21.10;94249.00;;;;10286580;28;45187;-60
2022/03/16 17:49:48;;;;;;;4.07;1.50;;;18.40;36.20;21.10;94226.00;;;;10296400;28;45225;-60
2022/03/16 17:54:48;;;;;;;3.67;1.50;;;18.40;36.20;21.10;94246.00;;;;10309227;28;45337;-60
2022/03/16 17:59:49;;;;;;;3.10;1.60;;;18.40;36.90;21.10;94238.00;;;;10285857;28;45531;-59
2022/03/16 18:04:50;;;;;;;3.50;1.50;;;18.40;36.20;21.10;94247.00;;;;10266571;28;48589;-60
2022/03/16 18:15:10;;;;;;;3.70;1.60;;;18.40;36.10;21.10;94245.00;;;;10271641;28;45152;-59
2022/03/16 18:20:10;;;;;;;2.92;1.55;;;18.40;36.10;21.10;94235.00;;;;10269497;28;47933;-60
2022/03/16 18:25:11;;;;;;;3.47;1.63;;;18.40;36.10;21.10;94231.00;;;;10286561;28;46578;-60
2022/03/16 18:30:12;;;;;;;3.03;1.50;;;18.40;36.10;21.10;94245.00;;;;10285692;28;46411;-60
2022/03/16 18:35:13;;;;;;;2.42;1.60;;;18.40;36.10;21.10;94254.00;;;;10385668;22;45201;-60
2022/03/16 18:40:13;;;;;;;2.95;1.77;;;18.40;36.10;21.10;94246.00;;;;10351380;28;46262;-60
2022/03/16 18:45:14;;;;;;;3.05;1.73;;;18.50;36.10;21.10;94260.00;;;;10350112;28;48071;-60
2022/03/16 18:50:15;;;;;;;3.15;1.67;;;18.50;36.10;21.10;94254.00;;;;10353659;28;46528;-60
2022/03/16 18:55:16;;;;;;;3.65;1.60;;;18.40;36.10;21.10;94260.00;;;;10358605;28;46384;-60
2022/03/16 19:00:18;;;;;;;3.00;1.60;;;18.50;36.10;21.10;94262.00;;;;10342009;28;45569;-60
2022/03/16 19:05:19;;;;;;;3.08;1.67;;;18.40;36.10;21.10;94263.00;;;;10315774;28;45370;-60
2022/03/16 19:10:19;;;;;;;3.38;1.52;;;18.40;36.00;21.10;94280.00;;;;10316001;28;45252;-60
2022/03/16 19:15:20;;;;;;;3.05;1.67;;;18.40;36.00;21.10;94273.00;;;;10315625;28;45443;-60
2022/03/16 19:20:23;;;;;;;2.95;1.92;;;18.40;36.60;21.10;94268.00;;;;10315484;28;45484;-60
2022/03/16 19:25:24;;;;;;;3.60;1.77;;;18.40;35.90;21.10;94277.00;;;;10314981;28;47421;-60
2022/03/16 19:30:25;;;;;;;4.15;1.90;;;18.40;36.00;21.10;94260.00;;;;10315291;28;45313;-60
2022/03/16 19:35:28;;;;;;;3.60;1.92;;;18.40;35.90;21.10;94264.00;;;;10314655;28;45441;-60
2022/03/16 19:40:29;;;;;;;3.13;1.70;;;18.50;36.00;21.10;94252.00;;;;10314977;28;48050;-59
2022/03/16 19:45:30;;;;;;;3.47;1.70;;;18.40;35.90;21.10;94265.00;;;;10314023;28;46138;-60
2022/03/16 19:50:31;;;;;;;2.83;1.48;;;18.50;35.90;21.10;94270.00;;;;10314856;28;45159;-60
2022/03/16 19:55:31;;;;;;;2.45;1.60;;;18.40;35.90;21.10;94266.00;;;;10314127;28;47236;-60
2022/03/16 20:00:33;;;;;;;3.10;1.60;;;18.50;35.80;21.10;94269.00;;;;10297085;28;48186;-60
2022/03/16 20:05:33;;;;;;;4.35;1.60;;;18.50;35.80;21.10;94272.00;;;;10314057;28;47744;-60
2022/03/16 20:10:34;;;;;;;2.45;1.33;;;18.50;35.80;21.10;94267.00;;;;10315144;28;45380;-60
2022/03/16 20:15:35;;;;;;;2.53;1.48;;;18.50;35.70;21.10;94278.00;;;;10313024;28;47092;-60
2022/03/16 20:20:37;;;;;;;2.85;1.60;;;18.50;35.80;21.10;94284.00;;;;10314865;28;46473;-60
2022/03/16 20:25:39;;;;;;;2.90;1.65;;;18.50;35.70;21.20;94279.00;;;;10313539;28;45563;-60
2022/03/16 20:30:40;;;;;;;2.78;1.48;;;18.50;35.70;21.20;94292.00;;;;10312985;28;46456;-60
2022/03/16 20:35:41;;;;;;;2.13;1.42;;;18.50;35.60;21.10;94290.00;;;;10312880;28;46153;-60
2022/03/16 20:40:42;;;;;;;2.80;1.50;;;18.50;35.70;21.10;94292.00;;;;10312868;28;45820;-60
2022/03/16 20:45:43;;;;;;;2.03;1.20;;;18.50;35.70;21.10;94271.00;;;;10312740;28;45350;-60
2022/03/16 20:50:44;;;;;;;3.10;1.45;;;18.50;35.60;21.10;94272.00;;;;10312663;28;45605;-60
2022/03/16 20:55:45;;;;;;;2.85;1.65;;;18.50;36.30;21.10;94270.00;;;;10311683;28;45151;-60
2022/03/16 21:00:45;;;;;;;3.38;1.50;;;18.50;35.50;21.10;94258.00;;;;10312423;28;47200;-60
2022/03/16 21:05:46;;;;;;;3.25;1.42;;;18.40;35.50;21.10;94269.00;;;;10312620;28;46100;-60
2022/03/16 21:10:47;;;;;;;2.13;1.50;;;18.50;35.50;21.10;94262.00;;;;10309186;28;48437;-60
2022/03/16 21:15:49;;;;;;;2.17;1.30;;;18.50;35.40;21.10;94278.00;;;;10306339;28;45296;-60
2022/03/16 21:20:50;;;;;;;1.75;1.27;;;18.50;35.50;21.10;94266.00;;;;10311964;28;46161;-60
2022/03/16 21:25:50;;;;;;;2.03;1.40;;;18.50;35.50;21.10;94253.00;;;;10311038;28;47922;-60
2022/03/16 21:30:53;;;;;;;2.58;1.42;;;18.40;35.50;21.10;94249.00;;;;10312605;28;46341;-60
2022/03/16 21:35:53;;;;;;;1.33;0.90;;;18.40;35.50;21.10;94259.00;;;;10312509;28;45229;-60
2022/03/16 21:46:13;;;;;;;2.50;1.25;;;18.40;35.50;21.00;94253.00;;;;10312406;28;45245;-60
2022/03/16 21:56:17;;;;;;;2.25;1.20;;;18.40;35.50;21.00;94274.00;;;;10311130;28;45249;-60
2022/03/16 22:01:17;;;;;;;3.08;1.25;;;18.30;35.40;21.00;94284.00;;;;10311373;28;48035;-60
2022/03/16 22:06:19;;;;;;;2.05;1.23;;;18.30;35.50;20.90;94263.00;;;;10310924;28;46500;-60
2022/03/16 22:11:20;;;;;;;1.73;1.00;;;18.30;35.40;20.90;94279.00;;;;10310245;28;46961;-60
2022/03/16 22:16:21;;;;;;;3.60;1.30;;;18.30;35.40;20.90;94272.00;;;;10311557;28;46041;-60
2022/03/16 22:21:25;;;;;;;2.10;1.20;;;18.20;35.30;20.90;94279.00;;;;10310774;28;46347;-60
2022/03/16 22:26:29;;;;;;;2.15;1.20;;;18.20;35.40;20.90;94271.00;;;;10316400;28;47084;-60
2022/03/16 22:31:30;;;;;;;2.58;1.05;;;18.20;35.40;20.90;94262.00;;;;10317121;28;46234;-60
2022/03/16 22:36:31;;;;;;;2.72;1.17;;;18.20;35.40;20.90;94256.00;;;;10317600;28;45510;-59
2022/03/16 22:41:32;;;;;;;1.83;1.23;;;18.20;35.40;20.90;94264.00;;;;10317210;28;45587;-60
2022/03/16 22:46:32;;;;;;;1.38;0.98;;;18.20;35.30;20.90;94264.00;;;;10316909;28;47128;-60
2022/03/16 22:51:33;;;;;;;3.25;1.23;;;18.20;35.40;20.80;94262.00;;;;10317052;28;45310;-59
2022/03/16 22:56:34;;;;;;;2.08;1.05;;;18.20;35.30;20.80;94266.00;;;;10316345;28;45459;-59
2022/03/16 23:01:35;;;;;;;2.05;1.10;;;18.20;35.40;20.80;94265.00;;;;10317890;28;45538;-59